Data for 01/06/2005

Time Sea-Level Adjusted Pressure Absolute Pressure Temperature Relative Humidity Dew Point   
(mb) (inHg) (mb) (inHg) (C) (F) (%) (C) (F)
00:05 1013 29.91 842 24.86 -17.9 -0.1 84 -19.9 -3.8
00:10 1013 29.91 842 24.86 -18.1 -0.6 84 -20.2 -4.4
00:15 1013 29.91 842 24.86 -18.3 -1 83 -20.5 -5
00:20 1012 29.88 842 24.86 -18.2 -0.7 85 -20.1 -4.1
00:25 1012 29.88 842 24.86 -18.1 -0.5 86 -19.9 -3.9
00:30 1012 29.88 842 24.86 -17.8 -0.1 86 -19.7 -3.4
00:35 1012 29.88 841 24.83 -17.6 0.4 84 -19.6 -3.3
00:40 1012 29.88 841 24.83 -17.5 0.4 85 -19.5 -3.1
00:45 1012 29.88 841 24.83 -17.6 0.4 82 -19.9 -3.8
00:50 1012 29.88 841 24.83 -18 -0.4 83 -20.2 -4.4
00:55 1012 29.88 841 24.83 -18.2 -0.7 84 -20.3 -4.5
01:00 1012 29.88 841 24.83 -18.1 -0.7 84 -20.2 -4.3
01:05 1012 29.88 841 24.83 -17.9 -0.2 84 -20 -4
01:10 1012 29.88 841 24.83 -17.6 0.3 86 -19.4 -2.9
01:15 1011 29.85 841 24.83 -17 1.5 83 -19.2 -2.5
01:20 1011 29.85 841 24.83 -17.2 1.1 83 -19.5 -3
01:25 1011 29.85 840 24.81 -17.3 0.9 85 -19.2 -2.6
01:30 1011 29.85 840 24.81 -17.4 0.8 84 -19.5 -3.1
01:35 1011 29.85 840 24.81 -17.3 0.8 84 -19.5 -3.1
01:40 1011 29.85 840 24.81 -17.1 1.2 84 -19.2 -2.5
01:45 1011 29.85 840 24.81 -17.2 1 86 -19 -2.2
01:50 1011 29.85 840 24.81 -17 1.4 83 -19.2 -2.5
01:55 1011 29.85 840 24.81 -17.1 1.2 82 -19.6 -3.2
02:00 1011 29.85 840 24.81 -17.8 0 86 -19.6 -3.3
02:05 1011 29.85 840 24.81 -18.1 -0.5 87 -19.7 -3.4
02:10 1011 29.85 840 24.81 -17.7 0.1 82 -20.1 -4.1
02:15 1011 29.85 840 24.81 -17.9 -0.2 86 -19.7 -3.5
02:20 1011 29.85 840 24.81 -17.3 0.9 84 -19.3 -2.8
02:25 1011 29.85 840 24.81 -17 1.3 85 -19 -2.3
02:30 1011 29.85 840 24.81 -16.6 2 84 -18.7 -1.7
02:35 1011 29.85 840 24.81 -16.4 2.5 83 -18.6 -1.5
02:40 1010 29.83 840 24.81 -16.3 2.6 83 -18.6 -1.5
02:45 1010 29.83 840 24.81 -16.4 2.5 83 -18.6 -1.6
02:50 1010 29.83 840 24.81 -16.6 2.2 84 -18.7 -1.7
02:55 1010 29.83 840 24.81 -16.6 2.2 83 -18.9 -2
03:00 1010 29.83 840 24.81 -16.7 1.9 84 -18.9 -2
03:05 1010 29.83 840 24.81 -16.7 2 85 -18.6 -1.4
03:10 1010 29.83 839 24.78 -16.2 2.9 83 -18.4 -1.1
03:15 1010 29.83 839 24.78 -16.3 2.8 86 -18 -0.5
03:20 1010 29.83 839 24.78 -16 3.1 83 -18.4 -1
03:25 1010 29.83 839 24.78 -16 3.2 83 -18.2 -0.8
03:30 1010 29.83 839 24.78 -15.9 3.4 81 -18.4 -1.1
03:35 1010 29.83 839 24.78 -15.9 3.4 80 -18.6 -1.5
03:40 1010 29.83 839 24.78 -16 3.1 81 -18.6 -1.5
03:45 1010 29.83 839 24.78 -16.2 2.8 81 -18.7 -1.6
03:50 1010 29.83 839 24.78 -16.3 2.7 82 -18.7 -1.6
03:55 1010 29.83 839 24.78 -16.2 2.8 82 -18.6 -1.6
04:00 1010 29.83 839 24.78 -16.1 3 80 -18.8 -1.9
04:05 1010 29.83 839 24.78 -16.3 2.8 78 -19.3 -2.8
04:10 1010 29.83 839 24.78 -16.5 2.3 82 -19 -2.2
04:15 1010 29.83 839 24.78 -16.3 2.6 80 -19 -2.2
04:20 1009 29.8 839 24.78 -16.3 2.8 80 -19 -2.1
04:25 1009 29.8 839 24.78 -16.4 2.4 81 -18.9 -2.1
04:30 1009 29.8 839 24.78 -16.5 2.3 80 -19.2 -2.5
04:35 1009 29.8 839 24.78 -16.6 2.1 80 -19.3 -2.7
04:40 1009 29.8 839 24.78 -16.8 1.8 80 -19.4 -2.9
04:45 1009 29.8 838 24.75 -17 1.5 81 -19.4 -3
04:50 1009 29.8 838 24.75 -17.2 1.1 83 -19.4 -2.9
04:55 1009 29.8 838 24.75 -17.2 1.1 84 -19.3 -2.7
05:00 1009 29.8 838 24.75 -16.5 2.4 85 -18.4 -1.2
05:05 1009 29.8 838 24.75 -15.9 3.5 79 -18.7 -1.7
05:10 1009 29.8 838 24.75 -15.9 3.5 82 -18.2 -0.8
05:15 1009 29.8 838 24.75 -15.7 3.8 80 -18.4 -1.1
05:20 1009 29.8 838 24.75 -15.9 3.3 79 -18.8 -1.9
05:25 1009 29.8 838 24.75 -16.3 2.7 84 -18.4 -1.2
05:30 1009 29.8 838 24.75 -15.4 4.3 83 -17.7 0.1
05:35 1009 29.8 838 24.75 -14.9 5.2 80 -17.6 0.4
05:40 1009 29.8 838 24.75 -14.8 5.3 81 -17.4 0.6
05:45 1009 29.8 838 24.75 -14.4 6.1 79 -17.2 1
05:50 1009 29.8 838 24.75 -14.2 6.5 77 -17.3 0.9
05:55 1009 29.8 838 24.75 -14.4 6.2 79 -17.2 1
06:00 1009 29.8 838 24.75 -14.2 6.4 79 -17.2 1.1
06:05 1009 29.8 838 24.75 -13.8 7.1 77 -17 1.4
06:10 1009 29.8 838 24.75 -14 6.9 77 -17.2 1.1
06:15 1009 29.8 838 24.75 -13.8 7.1 77 -17 1.4
06:20 1009 29.8 838 24.75 -13.8 7.2 75 -17.4 0.7
06:25 1009 29.8 838 24.75 -14.2 6.5 77 -17.4 0.7
06:30 1009 29.8 838 24.75 -13.9 7.1 78 -17 1.4
06:35 1009 29.8 838 24.75 -13.7 7.3 77 -16.9 1.6
06:40 1009 29.8 838 24.75 -13.9 6.9 77 -17.2 1.1
06:45 1009 29.8 838 24.75 -14.1 6.7 80 -16.9 1.6
06:50 1009 29.8 838 24.75 -13.6 7.6 78 -16.6 2
06:55 1009 29.8 838 24.75 -13.8 7.3 78 -16.8 1.8
07:00 1009 29.8 838 24.75 -14.5 5.9 79 -17.4 0.7
07:05 1008 29.77 838 24.75 -14.8 5.5 79 -17.6 0.3
07:10 1008 29.77 838 24.75 -14.6 5.6 81 -17.3 0.9
07:15 1008 29.77 838 24.75 -13.9 6.9 77 -17.1 1.2
07:20 1008 29.77 838 24.75 -14.1 6.5 78 -17.2 1.1
07:25 1008 29.77 838 24.75 -14.2 6.4 78 -17.2 1
07:30 1008 29.77 838 24.75 -14.5 6 80 -17.3 0.9
07:35 1008 29.77 838 24.75 -14.6 5.8 80 -17.3 0.8
07:40 1008 29.77 838 24.75 -14.7 5.5 80 -17.4 0.6
07:45 1008 29.77 838 24.75 -14.4 6.1 78 -17.4 0.7
07:50 1008 29.77 837 24.72 -14.3 6.2 79 -17.2 1
07:55 1008 29.77 838 24.75 -14.1 6.6 75 -17.6 0.4
08:00 1008 29.77 837 24.72 -14.4 6.1 79 -17.3 0.9
08:05 1008 29.77 838 24.75 -14 6.7 77 -17.3 0.9
08:10 1008 29.77 838 24.75 -14.1 6.6 75 -17.7 0.2
08:15 1008 29.77 838 24.75 -14.4 6.1 76 -17.7 0.2
08:20 1008 29.77 838 24.75 -14.7 5.6 78 -17.6 0.2
08:25 1008 29.77 838 24.75 -13.8 7.2 74 -17.5 0.5
08:30 1008 29.77 837 24.72 -13.7 7.4 76 -17.1 1.2
08:35 1008 29.77 838 24.75 -13.5 7.6 73 -17.4 0.7
08:40 1008 29.77 838 24.75 -13.6 7.5 74 -17.2 1
08:45 1008 29.77 838 24.75 -13 8.6 73 -16.8 1.7
08:50 1008 29.77 838 24.75 -12.4 9.7 72 -16.5 2.3
08:55 1009 29.8 838 24.75 -12.2 10.1 69 -16.7 1.9
09:00 1009 29.8 838 24.75 -12.4 9.6 72 -16.5 2.3
09:05 1009 29.8 838 24.75 -12 10.5 69 -16.6 2.2
09:10 1009 29.8 838 24.75 -11.5 11.2 66 -16.6 2.1
09:15 1009 29.8 838 24.75 -11.1 12.1 65 -16.4 2.5
09:20 1009 29.8 838 24.75 -10.6 12.9 62 -16.5 2.3
09:25 1009 29.8 838 24.75 -11.2 11.8 67 -16.2 2.9
09:30 1009 29.8 838 24.75 -10.7 12.7 65 -16.2 2.9
09:35 1009 29.8 838 24.75 -10 14 63 -15.9 3.4
09:40 1009 29.8 838 24.75 -9.8 14.5 62 -15.8 3.6
09:45 1009 29.8 838 24.75 -9.4 15.2 61 -15.7 3.8
09:50 1009 29.8 838 24.75 -9.4 15 62 -15.4 4.2
09:55 1009 29.8 838 24.75 -9.1 15.6 60 -15.4 4.2
10:00 1009 29.8 838 24.75 -9.7 14.6 66 -14.9 5.1
10:05 1009 29.8 838 24.75 -10.7 12.8 69 -15.2 4.6
10:10 1009 29.8 838 24.75 -10.7 12.7 69 -15.3 4.4
10:15 1008 29.77 838 24.75 -10.8 12.5 70 -15.3 4.5
10:20 1008 29.77 838 24.75 -10.9 12.4 70 -15.4 4.3
10:25 1008 29.77 837 24.72 -10.8 12.6 69 -15.5 4.2
10:30 1008 29.77 837 24.72 -10.7 12.8 70 -15.2 4.6
10:35 1008 29.77 837 24.72 -10.5 13 69 -15.1 4.8
10:40 1008 29.77 837 24.72 -10.2 13.6 68 -15 5
10:45 1008 29.77 837 24.72 -9.8 14.3 68 -14.7 5.6
10:50 1008 29.77 837 24.72 -9.7 14.5 67 -14.7 5.6
10:55 1008 29.77 837 24.72 -9.5 14.9 66 -14.7 5.5
11:00 1008 29.77 837 24.72 -9.2 15.5 65 -14.5 5.9
11:05 1008 29.77 837 24.72 -9.2 15.5 66 -14.5 6
11:10 1008 29.77 837 24.72 -8.9 16.1 64 -14.6 5.8
11:15 1008 29.77 837 24.72 -9.1 15.6 65 -14.5 6
11:20 1007 29.74 837 24.72 -8.8 16.2 64 -14.4 6.1
11:25 1007 29.74 837 24.72 -8.8 16.1 63 -14.7 5.6
11:30 1007 29.74 837 24.72 -8.9 16 62 -14.8 5.4
11:35 1007 29.74 836 24.69 -8.9 16 64 -14.5 5.9
11:40 1007 29.74 836 24.69 -8.6 16.5 63 -14.4 6.1
11:45 1007 29.74 836 24.69 -8.7 16.3 64 -14.4 6.1
11:50 1007 29.74 836 24.69 -8.8 16.1 64 -14.5 5.9
11:55 1007 29.74 836 24.69 -8.9 15.9 64 -14.5 5.9
12:00 1007 29.74 836 24.69 -9.1 15.7 63 -14.8 5.4
12:05 1007 29.74 836 24.69 -9 15.8 65 -14.3 6.2
12:10 1007 29.74 836 24.69 -8.7 16.4 63 -14.5 6
12:15 1007 29.74 836 24.69 -8.6 16.4 65 -14 6.8
12:20 1007 29.74 836 24.69 -8.4 16.9 64 -14.1 6.7
12:25 1007 29.74 836 24.69 -8.2 17.2 64 -13.9 7
12:30 1007 29.74 836 24.69 -8.3 17.1 64 -13.9 7
12:35 1007 29.74 836 24.69 -8 17.7 65 -13.5 7.6
12:40 1007 29.74 836 24.69 -7.8 18 63 -13.7 7.3
12:45 1007 29.74 836 24.69 -7.8 18 65 -13.3 8
12:50 1007 29.74 836 24.69 -8.1 17.4 66 -13.4 7.8
12:55 1007 29.74 836 24.69 -8 17.7 64 -13.6 7.5
13:00 1006 29.71 836 24.69 -7.9 17.8 64 -13.6 7.5
13:05 1006 29.71 836 24.69 -7.9 17.8 62 -14 6.7
13:10 1006 29.71 836 24.69 -8 17.6 62 -14 6.7
13:15 1006 29.71 836 24.69 -8.2 17.2 65 -13.8 7.2
13:20 1006 29.71 836 24.69 -8.2 17.2 64 -13.8 7.1
13:25 1007 29.74 836 24.69 -8.3 17.2 64 -13.9 6.9
13:30 1006 29.71 836 24.69 -8 17.6 63 -13.8 7.1
13:35 1006 29.71 836 24.69 -7.9 17.7 64 -13.7 7.4
13:40 1006 29.71 836 24.69 -8 17.6 64 -13.7 7.3
13:45 1006 29.71 836 24.69 -8.1 17.4 64 -13.8 7.2
13:50 1006 29.71 836 24.69 -7.9 17.9 60 -14.3 6.3
13:55 1006 29.71 836 24.69 -7.7 18.2 61 -14 6.8
14:00 1006 29.71 836 24.69 -7.6 18.4 64 -13.2 8.2
14:05 1006 29.71 836 24.69 -7.6 18.3 66 -13 8.6
14:10 1006 29.71 836 24.69 -7.3 18.9 65 -12.7 9.1
14:15 1006 29.71 836 24.69 -7.3 18.9 65 -12.8 9
14:20 1006 29.71 836 24.69 -7.2 19 61 -13.5 7.7
14:25 1007 29.74 836 24.69 -7.2 19 60 -13.7 7.4
14:30 1006 29.71 836 24.69 -7.1 19.1 58 -14 6.7
14:35 1006 29.71 836 24.69 -7.1 19.3 58 -13.9 7
14:40 1007 29.74 836 24.69 -7.2 19.1 57 -14.3 6.3
14:45 1007 29.74 836 24.69 -7.2 19 58 -14.1 6.6
14:50 1007 29.74 836 24.69 -7.2 19.1 58 -14 6.7
14:55 1007 29.74 836 24.69 -7.2 19.1 57 -14.3 6.3
15:00 1007 29.74 836 24.69 -7.1 19.3 57 -14.3 6.3
15:05 1007 29.74 836 24.69 -6.9 19.6 57 -14.1 6.7
15:10 1007 29.74 836 24.69 -7.1 19.3 58 -14 6.7
15:15 1007 29.74 836 24.69 -7.3 18.9 59 -14 6.8
15:20 1007 29.74 836 24.69 -7.2 19.1 60 -13.7 7.3
15:25 1007 29.74 836 24.69 -7.1 19.2 60 -13.7 7.4
15:30 1007 29.74 836 24.69 -7.2 19 60 -13.8 7.2
15:35 1007 29.74 836 24.69 -7.2 19.1 60 -13.7 7.3
15:40 1007 29.74 836 24.69 -7.2 19 60 -13.7 7.3
15:45 1007 29.74 836 24.69 -7.1 19.2 60 -13.6 7.5
15:50 1007 29.74 836 24.69 -7.1 19.3 59 -13.9 7.1
15:55 1007 29.74 836 24.69 -7.2 19 59 -13.9 7
16:00 1007 29.74 836 24.69 -7.3 19 61 -13.6 7.5
16:05 1007 29.74 836 24.69 -7.3 18.9 60 -13.9 7
16:10 1007 29.74 836 24.69 -7.4 18.7 60 -14 6.9
16:15 1007 29.74 836 24.69 -7.4 18.7 61 -13.6 7.5
16:20 1007 29.74 836 24.69 -7.3 18.9 62 -13.4 7.8
16:25 1007 29.74 836 24.69 -7.3 18.9 64 -12.9 8.8
16:30 1007 29.74 836 24.69 -7.1 19.2 62 -13.3 8.1
16:35 1007 29.74 837 24.72 -7.2 19.1 61 -13.4 7.8
16:40 1007 29.74 837 24.72 -7.2 19.1 64 -12.9 8.7
16:45 1007 29.74 837 24.72 -7.1 19.2 65 -12.7 9.2
16:50 1007 29.74 837 24.72 -7.2 19 66 -12.5 9.5
16:55 1008 29.77 837 24.72 -7.2 19 66 -12.6 9.4
17:00 1008 29.77 837 24.72 -7.1 19.1 68 -12.1 10.3
17:05 1008 29.77 837 24.72 -7.2 19.1 71 -11.7 11
17:10 1008 29.77 837 24.72 -7 19.3 70 -11.6 11.1
17:15 1008 29.77 837 24.72 -7 19.5 69 -11.7 11
17:20 1008 29.77 837 24.72 -6.9 19.6 70 -11.5 11.2
17:25 1008 29.77 837 24.72 -6.8 19.7 69 -11.5 11.3
17:30 1008 29.77 837 24.72 -6.8 19.8 69 -11.6 11.1
17:35 1008 29.77 837 24.72 -6.8 19.8 69 -11.5 11.2
17:40 1008 29.77 837 24.72 -6.7 19.9 67 -11.9 10.6
17:45 1008 29.77 837 24.72 -6.6 20.1 67 -11.8 10.8
17:50 1008 29.77 837 24.72 -6.5 20.3 67 -11.6 11
17:55 1008 29.77 837 24.72 -6.6 20.1 69 -11.4 11.4
18:00 1008 29.77 837 24.72 -6.7 20 71 -11.1 12
18:05 1008 29.77 837 24.72 -6.7 20 72 -10.9 12.4
18:10 1008 29.77 837 24.72 -6.8 19.7 73 -10.8 12.5
18:15 1008 29.77 837 24.72 -6.9 19.6 72 -11.1 12.1
18:20 1008 29.77 837 24.72 -7.3 19 74 -11.1 12
18:25 1008 29.77 837 24.72 -7.4 18.7 75 -11.1 12
18:30 1008 29.77 837 24.72 -7.4 18.7 75 -11.1 12.1
18:35 1008 29.77 837 24.72 -7.4 18.7 76 -10.9 12.3
18:40 1008 29.77 837 24.72 -7.7 18.1 77 -11.1 12
18:45 1008 29.77 837 24.72 -8 17.7 78 -11.2 11.9
18:50 1008 29.77 837 24.72 -8.1 17.5 80 -10.9 12.4
18:55 1008 29.77 837 24.72 -8.1 17.3 81 -10.8 12.5
19:00 1008 29.77 838 24.75 -8.3 17.1 82 -10.8 12.5
19:05 1008 29.77 838 24.75 -8.4 16.9 83 -10.7 12.7
19:10 1008 29.77 838 24.75 -8.3 17 84 -10.6 12.9
19:15 1008 29.77 838 24.75 -8.4 17 85 -10.5 13.1
19:20 1008 29.77 838 24.75 -8.3 17 85 -10.4 13.3
19:25 1009 29.8 838 24.75 -8.2 17.2 86 -10.2 13.6
19:30 1009 29.8 838 24.75 -8.2 17.2 85 -10.3 13.5
19:35 1009 29.8 838 24.75 -8.1 17.4 86 -10 14
19:40 1009 29.8 838 24.75 -8.1 17.4 86 -10.1 13.8
19:45 1009 29.8 838 24.75 -8 17.5 86 -10.1 13.9
19:50 1009 29.8 838 24.75 -7.9 17.7 86 -9.9 14.1
19:55 1009 29.8 838 24.75 -8 17.6 86 -10 14
20:00 1009 29.8 838 24.75 -8 17.5 86 -9.9 14.1
20:05 1009 29.8 838 24.75 -7.7 18.1 86 -9.7 14.5
20:10 1009 29.8 838 24.75 -7.6 18.3 84 -9.9 14.2
20:15 1009 29.8 838 24.75 -7.6 18.4 85 -9.7 14.5
20:20 1009 29.8 838 24.75 -7.6 18.4 85 -9.7 14.6
20:25 1009 29.8 838 24.75 -7.8 17.9 86 -9.8 14.4
20:30 1009 29.8 838 24.75 -8 17.7 87 -9.8 14.4
20:35 1009 29.8 838 24.75 -8 17.6 87 -9.7 14.5
20:40 1008 29.77 838 24.75 -8 17.5 89 -9.6 14.7
20:45 1008 29.77 838 24.75 -8.1 17.5 88 -9.6 14.6
20:50 1008 29.77 838 24.75 -8.1 17.4 89 -9.6 14.7
20:55 1009 29.8 838 24.75 -8.1 17.4 88 -9.7 14.5
21:00 1009 29.8 838 24.75 -8.1 17.3 89 -9.7 14.6
21:05 1009 29.8 838 24.75 -8.2 17.3 89 -9.7 14.5
21:10 1009 29.8 838 24.75 -8.2 17.3 89 -9.7 14.5
21:15 1009 29.8 838 24.75 -8.1 17.4 87 -9.9 14.2
21:20 1009 29.8 838 24.75 -8.1 17.4 87 -9.9 14.2
21:25 1009 29.8 838 24.75 -8 17.5 87 -9.8 14.3
21:30 1009 29.8 838 24.75 -8.1 17.4 89 -9.7 14.6
21:35 1009 29.8 838 24.75 -8.2 17.2 89 -9.7 14.6
21:40 1009 29.8 838 24.75 -8.3 17 88 -9.9 14.1
21:45 1009 29.8 838 24.75 -8.4 17 89 -9.9 14.2
21:50 1009 29.8 838 24.75 -8.4 16.8 89 -10 14.1
21:55 1009 29.8 838 24.75 -8.5 16.7 87 -10.2 13.6
22:00 1009 29.8 838 24.75 -8.6 16.6 89 -10.1 13.8
22:05 1009 29.8 838 24.75 -8.7 16.3 90 -10.2 13.7
22:10 1009 29.8 838 24.75 -9 15.9 91 -10.2 13.6
22:15 1009 29.8 838 24.75 -8.9 16 89 -10.4 13.3
22:20 1009 29.8 838 24.75 -8.7 16.3 88 -10.4 13.3
22:25 1009 29.8 838 24.75 -8.8 16.2 88 -10.4 13.2
22:30 1009 29.8 838 24.75 -8.9 16 88 -10.5 13
22:35 1009 29.8 838 24.75 -8.8 16.1 88 -10.5 13.1
22:40 1009 29.8 838 24.75 -8.9 16 87 -10.7 12.8
22:45 1009 29.8 838 24.75 -9.1 15.6 89 -10.6 12.9
22:50 1009 29.8 838 24.75 -9 15.7 88 -10.7 12.7
22:55 1009 29.8 838 24.75 -9.1 15.6 88 -10.7 12.7
23:00 1009 29.8 838 24.75 -9.1 15.7 86 -11.1 12.1
23:05 1009 29.8 838 24.75 -9.5 14.9 88 -11.1 12.1
23:10 1009 29.8 838 24.75 -9.7 14.5 86 -11.7 10.9
23:15 1009 29.8 838 24.75 -10.1 13.7 87 -11.9 10.5
23:20 1009 29.8 838 24.75 -10.4 13.3 88 -12.1 10.2
23:25 1009 29.8 838 24.75 -10.8 12.5 91 -12 10.3
23:30 1009 29.8 838 24.75 -10.5 13.2 91 -11.7 11
23:35 1009 29.8 838 24.75 -10.1 13.7 89 -11.6 11.1
23:40 1009 29.8 838 24.75 -10.3 13.5 89 -11.7 10.9
23:45 1009 29.8 838 24.75 -10.4 13.3 90 -11.8 10.8
23:50 1009 29.8 838 24.75 -10.4 13.4 90 -11.7 10.9
23:55 1009 29.8 838 24.75 -10.3 13.5 89 -11.7 10.9
24:00 1009 29.8 838 24.75 -10.3 13.6 89 -11.7 10.9